sensor_id;sensor_type;location;lat;lon;timestamp;P1;durP1;ratioP1;P2;durP2;ratioP2
69463;SDS011;56665;41.106;16.688;2023-07-31T00:00:07;5.60;;;3.60;;
69463;SDS011;56665;41.106;16.688;2023-07-31T00:03:12;6.32;;;3.92;;
69463;SDS011;56665;41.106;16.688;2023-07-31T00:06:16;6.30;;;3.90;;
69463;SDS011;56665;41.106;16.688;2023-07-31T00:09:19;7.28;;;4.18;;
69463;SDS011;56665;41.106;16.688;2023-07-31T00:12:23;6.88;;;4.60;;
69463;SDS011;56665;41.106;16.688;2023-07-31T00:15:27;8.30;;;3.75;;
69463;SDS011;56665;41.106;16.688;2023-07-31T00:18:31;7.55;;;4.72;;
69463;SDS011;56665;41.106;16.688;2023-07-31T00:21:35;6.53;;;3.97;;
69463;SDS011;56665;41.106;16.688;2023-07-31T00:24:39;9.35;;;4.38;;
69463;SDS011;56665;41.106;16.688;2023-07-31T00:27:43;8.02;;;3.92;;
69463;SDS011;56665;41.106;16.688;2023-07-31T00:30:49;9.30;;;4.20;;
69463;SDS011;56665;41.106;16.688;2023-07-31T00:33:52;8.27;;;4.88;;
69463;SDS011;56665;41.106;16.688;2023-07-31T00:36:56;7.97;;;4.40;;
69463;SDS011;56665;41.106;16.688;2023-07-31T00:40:00;7.35;;;4.00;;
69463;SDS011;56665;41.106;16.688;2023-07-31T00:43:04;6.30;;;4.15;;
69463;SDS011;56665;41.106;16.688;2023-07-31T00:46:07;5.90;;;4.65;;
69463;SDS011;56665;41.106;16.688;2023-07-31T00:49:11;7.53;;;4.30;;
69463;SDS011;56665;41.106;16.688;2023-07-31T00:52:15;5.93;;;4.30;;
69463;SDS011;56665;41.106;16.688;2023-07-31T00:55:20;7.43;;;4.55;;
69463;SDS011;56665;41.106;16.688;2023-07-31T00:58:25;7.50;;;4.53;;
69463;SDS011;56665;41.106;16.688;2023-07-31T01:01:29;6.50;;;4.10;;
69463;SDS011;56665;41.106;16.688;2023-07-31T01:04:33;6.07;;;4.28;;
69463;SDS011;56665;41.106;16.688;2023-07-31T01:07:59;6.78;;;4.30;;
69463;SDS011;56665;41.106;16.688;2023-07-31T01:11:10;9.27;;;4.43;;
69463;SDS011;56665;41.106;16.688;2023-07-31T01:14:23;8.65;;;4.60;;
69463;SDS011;56665;41.106;16.688;2023-07-31T01:17:26;5.72;;;3.80;;
69463;SDS011;56665;41.106;16.688;2023-07-31T01:20:30;6.53;;;4.20;;
69463;SDS011;56665;41.106;16.688;2023-07-31T01:23:40;7.05;;;4.57;;
69463;SDS011;56665;41.106;16.688;2023-07-31T01:26:55;7.40;;;4.50;;
69463;SDS011;56665;41.106;16.688;2023-07-31T01:33:17;7.22;;;4.40;;
69463;SDS011;56665;41.106;16.688;2023-07-31T01:36:21;6.03;;;3.85;;
69463;SDS011;56665;41.106;16.688;2023-07-31T01:39:25;6.38;;;3.95;;
69463;SDS011;56665;41.106;16.688;2023-07-31T01:42:29;6.78;;;4.00;;
69463;SDS011;56665;41.106;16.688;2023-07-31T01:45:32;6.47;;;4.10;;
69463;SDS011;56665;41.106;16.688;2023-07-31T01:48:39;8.02;;;4.43;;
69463;SDS011;56665;41.106;16.688;2023-07-31T01:51:43;7.15;;;4.45;;
69463;SDS011;56665;41.106;16.688;2023-07-31T01:54:47;6.38;;;4.45;;
69463;SDS011;56665;41.106;16.688;2023-07-31T01:57:51;9.13;;;4.10;;
69463;SDS011;56665;41.106;16.688;2023-07-31T02:00:55;7.20;;;4.38;;
69463;SDS011;56665;41.106;16.688;2023-07-31T02:03:59;8.77;;;4.03;;
69463;SDS011;56665;41.106;16.688;2023-07-31T02:07:03;6.47;;;4.10;;
69463;SDS011;56665;41.106;16.688;2023-07-31T02:10:06;6.30;;;4.00;;
69463;SDS011;56665;41.106;16.688;2023-07-31T02:13:12;5.90;;;4.00;;
69463;SDS011;56665;41.106;16.688;2023-07-31T02:16:16;7.22;;;4.13;;
69463;SDS011;56665;41.106;16.688;2023-07-31T02:19:19;6.25;;;4.00;;
69463;SDS011;56665;41.106;16.688;2023-07-31T02:22:23;7.63;;;4.35;;
69463;SDS011;56665;41.106;16.688;2023-07-31T02:25:27;6.43;;;4.50;;
69463;SDS011;56665;41.106;16.688;2023-07-31T02:28:31;6.55;;;4.35;;
69463;SDS011;56665;41.106;16.688;2023-07-31T02:31:36;9.05;;;4.43;;
69463;SDS011;56665;41.106;16.688;2023-07-31T02:34:40;7.13;;;3.80;;
69463;SDS011;56665;41.106;16.688;2023-07-31T02:37:44;9.50;;;4.20;;
69463;SDS011;56665;41.106;16.688;2023-07-31T02:40:47;5.75;;;4.07;;
69463;SDS011;56665;41.106;16.688;2023-07-31T02:43:51;8.13;;;4.38;;
69463;SDS011;56665;41.106;16.688;2023-07-31T02:46:55;9.13;;;4.05;;
69463;SDS011;56665;41.106;16.688;2023-07-31T02:49:59;6.78;;;4.13;;
69463;SDS011;56665;41.106;16.688;2023-07-31T02:53:03;6.20;;;4.38;;
69463;SDS011;56665;41.106;16.688;2023-07-31T02:56:08;8.77;;;4.65;;
69463;SDS011;56665;41.106;16.688;2023-07-31T02:59:11;5.68;;;4.00;;
69463;SDS011;56665;41.106;16.688;2023-07-31T03:02:15;6.95;;;4.35;;
69463;SDS011;56665;41.106;16.688;2023-07-31T03:05:19;7.75;;;4.55;;
69463;SDS011;56665;41.106;16.688;2023-07-31T03:08:22;10.57;;;4.45;;
69463;SDS011;56665;41.106;16.688;2023-07-31T03:11:27;6.47;;;4.40;;
69463;SDS011;56665;41.106;16.688;2023-07-31T03:14:31;7.53;;;4.63;;
69463;SDS011;56665;41.106;16.688;2023-07-31T03:17:35;8.02;;;4.90;;
69463;SDS011;56665;41.106;16.688;2023-07-31T03:20:41;8.60;;;5.35;;
69463;SDS011;56665;41.106;16.688;2023-07-31T03:23:47;9.38;;;4.88;;
69463;SDS011;56665;41.106;16.688;2023-07-31T03:26:51;8.90;;;4.43;;
69463;SDS011;56665;41.106;16.688;2023-07-31T03:29:54;9.00;;;4.40;;
69463;SDS011;56665;41.106;16.688;2023-07-31T03:32:58;11.65;;;4.60;;
69463;SDS011;56665;41.106;16.688;2023-07-31T03:36:02;9.10;;;4.28;;
69463;SDS011;56665;41.106;16.688;2023-07-31T03:39:08;11.38;;;4.50;;
69463;SDS011;56665;41.106;16.688;2023-07-31T03:42:11;8.13;;;4.25;;
69463;SDS011;56665;41.106;16.688;2023-07-31T03:45:16;7.00;;;4.38;;
69463;SDS011;56665;41.106;16.688;2023-07-31T03:48:19;7.93;;;4.55;;
69463;SDS011;56665;41.106;16.688;2023-07-31T03:51:23;10.80;;;5.90;;
69463;SDS011;56665;41.106;16.688;2023-07-31T03:54:27;12.90;;;6.32;;
69463;SDS011;56665;41.106;16.688;2023-07-31T03:57:31;10.43;;;6.55;;
69463;SDS011;56665;41.106;16.688;2023-07-31T04:00:35;10.60;;;5.85;;
69463;SDS011;56665;41.106;16.688;2023-07-31T04:03:39;9.18;;;5.00;;
69463;SDS011;56665;41.106;16.688;2023-07-31T04:06:43;8.35;;;4.70;;
69463;SDS011;56665;41.106;16.688;2023-07-31T04:09:47;7.35;;;4.50;;
69463;SDS011;56665;41.106;16.688;2023-07-31T04:12:52;7.82;;;4.43;;
69463;SDS011;56665;41.106;16.688;2023-07-31T04:15:56;9.98;;;5.47;;
69463;SDS011;56665;41.106;16.688;2023-07-31T04:19:00;15.82;;;7.20;;
69463;SDS011;56665;41.106;16.688;2023-07-31T04:22:04;14.93;;;7.60;;
69463;SDS011;56665;41.106;16.688;2023-07-31T04:25:08;14.10;;;7.45;;
69463;SDS011;56665;41.106;16.688;2023-07-31T04:28:11;12.90;;;6.80;;
69463;SDS011;56665;41.106;16.688;2023-07-31T04:31:15;13.18;;;6.80;;
69463;SDS011;56665;41.106;16.688;2023-07-31T04:34:19;10.25;;;6.43;;
69463;SDS011;56665;41.106;16.688;2023-07-31T04:37:23;14.07;;;7.65;;
69463;SDS011;56665;41.106;16.688;2023-07-31T04:40:27;14.60;;;7.60;;
69463;SDS011;56665;41.106;16.688;2023-07-31T04:43:31;14.60;;;7.93;;
69463;SDS011;56665;41.106;16.688;2023-07-31T04:46:27;14.32;;;8.43;;
69463;SDS011;56665;41.106;16.688;2023-07-31T04:49:32;13.48;;;8.27;;
69463;SDS011;56665;41.106;16.688;2023-07-31T04:52:36;17.17;;;9.88;;
69463;SDS011;56665;41.106;16.688;2023-07-31T04:55:39;15.48;;;8.95;;
69463;SDS011;56665;41.106;16.688;2023-07-31T04:58:43;15.48;;;8.13;;
69463;SDS011;56665;41.106;16.688;2023-07-31T05:01:47;14.25;;;6.70;;
69463;SDS011;56665;41.106;16.688;2023-07-31T05:04:51;12.20;;;6.03;;
69463;SDS011;56665;41.106;16.688;2023-07-31T05:07:55;12.00;;;6.13;;
69463;SDS011;56665;41.106;16.688;2023-07-31T05:10:58;14.82;;;6.22;;
69463;SDS011;56665;41.106;16.688;2023-07-31T05:14:02;13.35;;;6.07;;
69463;SDS011;56665;41.106;16.688;2023-07-31T05:17:06;16.08;;;5.88;;
69463;SDS011;56665;41.106;16.688;2023-07-31T05:20:10;13.70;;;5.93;;
69463;SDS011;56665;41.106;16.688;2023-07-31T05:23:14;9.75;;;5.47;;
69463;SDS011;56665;41.106;16.688;2023-07-31T05:26:18;13.05;;;5.20;;
69463;SDS011;56665;41.106;16.688;2023-07-31T05:29:21;12.30;;;6.00;;
69463;SDS011;56665;41.106;16.688;2023-07-31T05:32:25;16.58;;;6.57;;
69463;SDS011;56665;41.106;16.688;2023-07-31T05:35:30;15.15;;;7.57;;
69463;SDS011;56665;41.106;16.688;2023-07-31T05:38:33;21.38;;;7.90;;
69463;SDS011;56665;41.106;16.688;2023-07-31T05:41:37;18.25;;;9.02;;
69463;SDS011;56665;41.106;16.688;2023-07-31T05:44:41;19.98;;;9.25;;
69463;SDS011;56665;41.106;16.688;2023-07-31T05:47:45;17.58;;;8.35;;
69463;SDS011;56665;41.106;16.688;2023-07-31T05:50:50;17.50;;;8.30;;
69463;SDS011;56665;41.106;16.688;2023-07-31T05:53:55;16.90;;;6.85;;
69463;SDS011;56665;41.106;16.688;2023-07-31T05:56:59;19.23;;;6.63;;
69463;SDS011;56665;41.106;16.688;2023-07-31T06:00:02;16.83;;;5.80;;
69463;SDS011;56665;41.106;16.688;2023-07-31T06:03:08;14.95;;;5.25;;
69463;SDS011;56665;41.106;16.688;2023-07-31T06:06:12;15.13;;;5.70;;
69463;SDS011;56665;41.106;16.688;2023-07-31T06:09:17;14.73;;;6.25;;
69463;SDS011;56665;41.106;16.688;2023-07-31T06:12:20;15.27;;;6.00;;
69463;SDS011;56665;41.106;16.688;2023-07-31T06:15:25;15.15;;;5.50;;
69463;SDS011;56665;41.106;16.688;2023-07-31T06:18:29;15.52;;;5.47;;
69463;SDS011;56665;41.106;16.688;2023-07-31T06:21:33;11.18;;;4.38;;
69463;SDS011;56665;41.106;16.688;2023-07-31T06:24:37;13.13;;;5.13;;
69463;SDS011;56665;41.106;16.688;2023-07-31T06:27:41;16.05;;;5.80;;
69463;SDS011;56665;41.106;16.688;2023-07-31T06:30:45;14.10;;;5.60;;
69463;SDS011;56665;41.106;16.688;2023-07-31T06:33:49;11.15;;;5.15;;
69463;SDS011;56665;41.106;16.688;2023-07-31T06:36:53;15.63;;;5.00;;
69463;SDS011;56665;41.106;16.688;2023-07-31T06:39:58;12.13;;;4.72;;
69463;SDS011;56665;41.106;16.688;2023-07-31T06:43:02;12.60;;;5.40;;
69463;SDS011;56665;41.106;16.688;2023-07-31T06:46:11;13.82;;;5.15;;
69463;SDS011;56665;41.106;16.688;2023-07-31T06:49:15;12.70;;;4.20;;
69463;SDS011;56665;41.106;16.688;2023-07-31T06:52:18;8.07;;;4.50;;
69463;SDS011;56665;41.106;16.688;2023-07-31T06:55:22;10.32;;;3.95;;
69463;SDS011;56665;41.106;16.688;2023-07-31T06:58:26;8.82;;;4.30;;
69463;SDS011;56665;41.106;16.688;2023-07-31T07:01:30;9.15;;;4.00;;
69463;SDS011;56665;41.106;16.688;2023-07-31T07:04:34;8.65;;;4.10;;
69463;SDS011;56665;41.106;16.688;2023-07-31T07:07:38;10.15;;;4.20;;
69463;SDS011;56665;41.106;16.688;2023-07-31T07:10:43;8.32;;;4.28;;
69463;SDS011;56665;41.106;16.688;2023-07-31T07:13:48;8.65;;;4.50;;
69463;SDS011;56665;41.106;16.688;2023-07-31T07:16:52;10.55;;;4.80;;
69463;SDS011;56665;41.106;16.688;2023-07-31T07:19:58;8.05;;;4.50;;
69463;SDS011;56665;41.106;16.688;2023-07-31T07:23:03;7.05;;;3.92;;
69463;SDS011;56665;41.106;16.688;2023-07-31T07:26:07;13.20;;;4.00;;
69463;SDS011;56665;41.106;16.688;2023-07-31T07:29:10;6.70;;;4.10;;
69463;SDS011;56665;41.106;16.688;2023-07-31T07:32:14;7.60;;;3.78;;
69463;SDS011;56665;41.106;16.688;2023-07-31T07:35:18;8.88;;;3.55;;
69463;SDS011;56665;41.106;16.688;2023-07-31T07:38:21;7.32;;;3.78;;
69463;SDS011;56665;41.106;16.688;2023-07-31T07:41:29;7.18;;;3.72;;
69463;SDS011;56665;41.106;16.688;2023-07-31T07:44:33;6.32;;;3.75;;
69463;SDS011;56665;41.106;16.688;2023-07-31T07:47:40;5.30;;;3.45;;
69463;SDS011;56665;41.106;16.688;2023-07-31T07:50:45;7.70;;;3.95;;
69463;SDS011;56665;41.106;16.688;2023-07-31T07:53:49;6.00;;;3.58;;
69463;SDS011;56665;41.106;16.688;2023-07-31T07:56:52;7.32;;;3.50;;
69463;SDS011;56665;41.106;16.688;2023-07-31T07:59:56;6.53;;;3.80;;
69463;SDS011;56665;41.106;16.688;2023-07-31T08:03:00;5.85;;;3.80;;
69463;SDS011;56665;41.106;16.688;2023-07-31T08:06:03;6.30;;;4.10;;
69463;SDS011;56665;41.106;16.688;2023-07-31T08:09:07;6.97;;;4.07;;
69463;SDS011;56665;41.106;16.688;2023-07-31T08:12:12;7.15;;;3.88;;
69463;SDS011;56665;41.106;16.688;2023-07-31T08:15:16;7.15;;;3.70;;
69463;SDS011;56665;41.106;16.688;2023-07-31T08:18:20;5.55;;;3.80;;
69463;SDS011;56665;41.106;16.688;2023-07-31T08:21:24;5.40;;;3.97;;
69463;SDS011;56665;41.106;16.688;2023-07-31T08:24:28;7.05;;;4.15;;
69463;SDS011;56665;41.106;16.688;2023-07-31T08:27:32;7.13;;;3.95;;
69463;SDS011;56665;41.106;16.688;2023-07-31T08:30:35;9.80;;;4.15;;
69463;SDS011;56665;41.106;16.688;2023-07-31T08:33:39;5.18;;;4.05;;
69463;SDS011;56665;41.106;16.688;2023-07-31T08:36:45;11.87;;;4.20;;
69463;SDS011;56665;41.106;16.688;2023-07-31T08:39:49;6.72;;;4.18;;
69463;SDS011;56665;41.106;16.688;2023-07-31T08:42:54;7.80;;;3.90;;
69463;SDS011;56665;41.106;16.688;2023-07-31T08:45:59;6.10;;;4.27;;
69463;SDS011;56665;41.106;16.688;2023-07-31T08:49:04;8.05;;;4.22;;
69463;SDS011;56665;41.106;16.688;2023-07-31T08:52:11;8.38;;;3.97;;
69463;SDS011;56665;41.106;16.688;2023-07-31T08:55:15;6.47;;;4.10;;
69463;SDS011;56665;41.106;16.688;2023-07-31T08:58:19;5.57;;;3.70;;
69463;SDS011;56665;41.106;16.688;2023-07-31T09:01:27;5.93;;;3.40;;
69463;SDS011;56665;41.106;16.688;2023-07-31T09:04:33;4.53;;;3.55;;
69463;SDS011;56665;41.106;16.688;2023-07-31T09:07:38;6.47;;;3.85;;
69463;SDS011;56665;41.106;16.688;2023-07-31T09:10:44;5.00;;;3.55;;
69463;SDS011;56665;41.106;16.688;2023-07-31T09:13:49;4.97;;;3.67;;
69463;SDS011;56665;41.106;16.688;2023-07-31T09:23:24;7.50;;;3.40;;
69463;SDS011;56665;41.106;16.688;2023-07-31T09:26:31;6.30;;;3.15;;
69463;SDS011;56665;41.106;16.688;2023-07-31T09:29:36;6.95;;;2.97;;
69463;SDS011;56665;41.106;16.688;2023-07-31T09:32:40;5.67;;;2.80;;
69463;SDS011;56665;41.106;16.688;2023-07-31T09:35:44;3.80;;;2.63;;
69463;SDS011;56665;41.106;16.688;2023-07-31T09:38:48;6.32;;;2.60;;
69463;SDS011;56665;41.106;16.688;2023-07-31T09:41:55;4.10;;;2.45;;
69463;SDS011;56665;41.106;16.688;2023-07-31T09:45:09;5.90;;;2.55;;
69463;SDS011;56665;41.106;16.688;2023-07-31T09:48:17;11.00;;;2.77;;
69463;SDS011;56665;41.106;16.688;2023-07-31T09:51:30;8.48;;;2.80;;
69463;SDS011;56665;41.106;16.688;2023-07-31T09:54:34;9.10;;;2.58;;
69463;SDS011;56665;41.106;16.688;2023-07-31T09:57:41;4.68;;;2.72;;
69463;SDS011;56665;41.106;16.688;2023-07-31T10:00:51;6.38;;;2.60;;
69463;SDS011;56665;41.106;16.688;2023-07-31T10:03:55;4.00;;;2.60;;
69463;SDS011;56665;41.106;16.688;2023-07-31T10:07:00;5.50;;;2.85;;
69463;SDS011;56665;41.106;16.688;2023-07-31T10:10:07;6.47;;;2.83;;
69463;SDS011;56665;41.106;16.688;2023-07-31T10:13:14;5.10;;;2.72;;
69463;SDS011;56665;41.106;16.688;2023-07-31T10:16:19;5.45;;;2.70;;
69463;SDS011;56665;41.106;16.688;2023-07-31T10:19:23;5.43;;;2.90;;
69463;SDS011;56665;41.106;16.688;2023-07-31T10:22:30;8.15;;;2.67;;
69463;SDS011;56665;41.106;16.688;2023-07-31T10:25:35;6.00;;;2.80;;
69463;SDS011;56665;41.106;16.688;2023-07-31T10:28:41;4.85;;;2.58;;
69463;SDS011;56665;41.106;16.688;2023-07-31T10:31:47;6.20;;;2.90;;
69463;SDS011;56665;41.106;16.688;2023-07-31T10:34:51;5.50;;;2.97;;
69463;SDS011;56665;41.106;16.688;2023-07-31T10:37:57;5.97;;;2.63;;
69463;SDS011;56665;41.106;16.688;2023-07-31T10:41:13;16.23;;;2.70;;
69463;SDS011;56665;41.106;16.688;2023-07-31T10:44:17;7.95;;;2.83;;
69463;SDS011;56665;41.106;16.688;2023-07-31T10:47:22;13.38;;;3.15;;
69463;SDS011;56665;41.106;16.688;2023-07-31T10:50:26;9.93;;;3.03;;
69463;SDS011;56665;41.106;16.688;2023-07-31T10:53:31;3.80;;;2.38;;
69463;SDS011;56665;41.106;16.688;2023-07-31T10:56:38;5.40;;;2.60;;
69463;SDS011;56665;41.106;16.688;2023-07-31T10:59:43;5.25;;;2.20;;
69463;SDS011;56665;41.106;16.688;2023-07-31T11:02:57;4.95;;;2.53;;
69463;SDS011;56665;41.106;16.688;2023-07-31T11:06:06;12.57;;;2.60;;
69463;SDS011;56665;41.106;16.688;2023-07-31T11:09:10;10.27;;;2.97;;
69463;SDS011;56665;41.106;16.688;2023-07-31T11:12:16;6.88;;;2.80;;
69463;SDS011;56665;41.106;16.688;2023-07-31T11:15:21;6.05;;;2.80;;
69463;SDS011;56665;41.106;16.688;2023-07-31T11:18:25;7.15;;;2.65;;
69463;SDS011;56665;41.106;16.688;2023-07-31T11:21:30;8.43;;;3.20;;
69463;SDS011;56665;41.106;16.688;2023-07-31T11:24:34;5.20;;;3.22;;
69463;SDS011;56665;41.106;16.688;2023-07-31T11:27:42;4.72;;;2.90;;
69463;SDS011;56665;41.106;16.688;2023-07-31T11:30:47;4.35;;;2.63;;
69463;SDS011;56665;41.106;16.688;2023-07-31T11:34:03;5.07;;;2.53;;
69463;SDS011;56665;41.106;16.688;2023-07-31T11:37:08;4.70;;;2.70;;
69463;SDS011;56665;41.106;16.688;2023-07-31T11:40:12;5.00;;;3.10;;
69463;SDS011;56665;41.106;16.688;2023-07-31T11:43:16;4.00;;;2.30;;
69463;SDS011;56665;41.106;16.688;2023-07-31T11:46:20;5.05;;;2.85;;
69463;SDS011;56665;41.106;16.688;2023-07-31T11:49:24;4.25;;;2.60;;
69463;SDS011;56665;41.106;16.688;2023-07-31T11:52:34;7.37;;;2.77;;
69463;SDS011;56665;41.106;16.688;2023-07-31T11:55:41;13.43;;;3.45;;
69463;SDS011;56665;41.106;16.688;2023-07-31T11:58:47;4.68;;;2.83;;
69463;SDS011;56665;41.106;16.688;2023-07-31T12:01:58;5.28;;;2.55;;
69463;SDS011;56665;41.106;16.688;2023-07-31T12:05:02;6.63;;;2.90;;
69463;SDS011;56665;41.106;16.688;2023-07-31T12:08:11;6.50;;;2.80;;
69463;SDS011;56665;41.106;16.688;2023-07-31T12:11:15;5.32;;;2.88;;
69463;SDS011;56665;41.106;16.688;2023-07-31T12:14:22;5.07;;;2.63;;
69463;SDS011;56665;41.106;16.688;2023-07-31T12:17:28;3.58;;;2.50;;
69463;SDS011;56665;41.106;16.688;2023-07-31T12:20:32;4.57;;;2.60;;
69463;SDS011;56665;41.106;16.688;2023-07-31T12:23:36;4.97;;;2.90;;
69463;SDS011;56665;41.106;16.688;2023-07-31T12:26:42;4.00;;;2.65;;
69463;SDS011;56665;41.106;16.688;2023-07-31T12:29:50;4.88;;;2.78;;
69463;SDS011;56665;41.106;16.688;2023-07-31T12:32:56;3.97;;;2.80;;
69463;SDS011;56665;41.106;16.688;2023-07-31T12:36:03;5.28;;;3.03;;
69463;SDS011;56665;41.106;16.688;2023-07-31T12:39:08;4.33;;;2.70;;
69463;SDS011;56665;41.106;16.688;2023-07-31T12:42:12;3.30;;;2.40;;
69463;SDS011;56665;41.106;16.688;2023-07-31T12:45:16;3.90;;;2.83;;
69463;SDS011;56665;41.106;16.688;2023-07-31T12:48:20;4.18;;;2.95;;
69463;SDS011;56665;41.106;16.688;2023-07-31T12:51:24;3.88;;;3.15;;
69463;SDS011;56665;41.106;16.688;2023-07-31T12:54:28;4.57;;;2.80;;
69463;SDS011;56665;41.106;16.688;2023-07-31T12:57:32;4.93;;;3.30;;
69463;SDS011;56665;41.106;16.688;2023-07-31T13:00:36;4.03;;;3.00;;
69463;SDS011;56665;41.106;16.688;2023-07-31T13:03:40;4.35;;;2.70;;
69463;SDS011;56665;41.106;16.688;2023-07-31T13:06:44;4.70;;;2.47;;
69463;SDS011;56665;41.106;16.688;2023-07-31T13:09:49;4.07;;;2.77;;
69463;SDS011;56665;41.106;16.688;2023-07-31T13:12:53;3.40;;;2.47;;
69463;SDS011;56665;41.106;16.688;2023-07-31T13:15:56;6.43;;;3.28;;
69463;SDS011;56665;41.106;16.688;2023-07-31T13:19:01;6.07;;;3.30;;
69463;SDS011;56665;41.106;16.688;2023-07-31T13:22:04;6.05;;;3.17;;
69463;SDS011;56665;41.106;16.688;2023-07-31T13:25:08;4.40;;;3.40;;
69463;SDS011;56665;41.106;16.688;2023-07-31T13:28:12;5.40;;;3.00;;
69463;SDS011;56665;41.106;16.688;2023-07-31T13:31:17;5.60;;;3.38;;
69463;SDS011;56665;41.106;16.688;2023-07-31T13:34:22;4.32;;;3.05;;
69463;SDS011;56665;41.106;16.688;2023-07-31T13:37:25;4.47;;;3.50;;
69463;SDS011;56665;41.106;16.688;2023-07-31T13:40:30;4.50;;;3.00;;
69463;SDS011;56665;41.106;16.688;2023-07-31T13:43:34;5.18;;;3.70;;
69463;SDS011;56665;41.106;16.688;2023-07-31T13:46:37;4.22;;;3.20;;
69463;SDS011;56665;41.106;16.688;2023-07-31T13:49:41;4.03;;;3.10;;
69463;SDS011;56665;41.106;16.688;2023-07-31T13:52:46;3.83;;;3.25;;
69463;SDS011;56665;41.106;16.688;2023-07-31T13:55:50;4.43;;;2.97;;
69463;SDS011;56665;41.106;16.688;2023-07-31T13:58:54;4.68;;;3.15;;
69463;SDS011;56665;41.106;16.688;2023-07-31T14:01:58;6.75;;;3.63;;
69463;SDS011;56665;41.106;16.688;2023-07-31T14:05:02;4.95;;;3.13;;
69463;SDS011;56665;41.106;16.688;2023-07-31T14:08:06;4.88;;;3.40;;
69463;SDS011;56665;41.106;16.688;2023-07-31T14:11:10;4.37;;;3.27;;
69463;SDS011;56665;41.106;16.688;2023-07-31T14:14:14;5.55;;;3.75;;
69463;SDS011;56665;41.106;16.688;2023-07-31T14:17:18;4.95;;;3.30;;
69463;SDS011;56665;41.106;16.688;2023-07-31T14:20:21;4.63;;;3.20;;
69463;SDS011;56665;41.106;16.688;2023-07-31T14:23:26;4.10;;;3.20;;
69463;SDS011;56665;41.106;16.688;2023-07-31T14:26:29;4.10;;;3.40;;
69463;SDS011;56665;41.106;16.688;2023-07-31T14:29:33;4.40;;;2.97;;
69463;SDS011;56665;41.106;16.688;2023-07-31T14:32:37;6.20;;;3.40;;
69463;SDS011;56665;41.106;16.688;2023-07-31T14:35:41;4.35;;;3.20;;
69463;SDS011;56665;41.106;16.688;2023-07-31T14:38:45;4.07;;;3.38;;
69463;SDS011;56665;41.106;16.688;2023-07-31T14:41:48;4.90;;;3.70;;
69463;SDS011;56665;41.106;16.688;2023-07-31T14:44:52;5.50;;;3.88;;
69463;SDS011;56665;41.106;16.688;2023-07-31T14:47:56;6.90;;;4.05;;
69463;SDS011;56665;41.106;16.688;2023-07-31T14:51:00;4.68;;;3.72;;
69463;SDS011;56665;41.106;16.688;2023-07-31T14:54:04;5.22;;;3.55;;
69463;SDS011;56665;41.106;16.688;2023-07-31T14:57:07;5.43;;;3.70;;
69463;SDS011;56665;41.106;16.688;2023-07-31T15:00:12;4.88;;;3.58;;
69463;SDS011;56665;41.106;16.688;2023-07-31T15:03:16;5.53;;;3.58;;
69463;SDS011;56665;41.106;16.688;2023-07-31T15:06:19;6.78;;;3.70;;
69463;SDS011;56665;41.106;16.688;2023-07-31T15:09:23;6.68;;;3.65;;
69463;SDS011;56665;41.106;16.688;2023-07-31T15:12:27;8.17;;;4.03;;
69463;SDS011;56665;41.106;16.688;2023-07-31T15:15:31;4.30;;;3.72;;
69463;SDS011;56665;41.106;16.688;2023-07-31T15:18:36;9.20;;;4.15;;
69463;SDS011;56665;41.106;16.688;2023-07-31T15:21:39;5.97;;;4.30;;
69463;SDS011;56665;41.106;16.688;2023-07-31T15:24:43;10.50;;;8.27;;
69463;SDS011;56665;41.106;16.688;2023-07-31T15:27:47;7.27;;;5.27;;
69463;SDS011;56665;41.106;16.688;2023-07-31T15:30:51;6.57;;;4.57;;
69463;SDS011;56665;41.106;16.688;2023-07-31T15:33:54;6.57;;;4.60;;
69463;SDS011;56665;41.106;16.688;2023-07-31T15:36:58;5.03;;;3.88;;
69463;SDS011;56665;41.106;16.688;2023-07-31T15:40:02;4.90;;;3.88;;
69463;SDS011;56665;41.106;16.688;2023-07-31T15:43:06;6.00;;;4.20;;
69463;SDS011;56665;41.106;16.688;2023-07-31T15:46:10;5.68;;;3.92;;
69463;SDS011;56665;41.106;16.688;2023-07-31T15:49:14;5.22;;;4.20;;
69463;SDS011;56665;41.106;16.688;2023-07-31T15:52:17;6.05;;;4.32;;
69463;SDS011;56665;41.106;16.688;2023-07-31T15:55:21;5.35;;;4.20;;
69463;SDS011;56665;41.106;16.688;2023-07-31T15:58:25;6.10;;;4.20;;
69463;SDS011;56665;41.106;16.688;2023-07-31T16:01:29;6.00;;;4.43;;
69463;SDS011;56665;41.106;16.688;2023-07-31T16:04:33;7.18;;;4.40;;
69463;SDS011;56665;41.106;16.688;2023-07-31T16:07:37;8.60;;;4.70;;
69463;SDS011;56665;41.106;16.688;2023-07-31T16:10:41;6.13;;;4.22;;
69463;SDS011;56665;41.106;16.688;2023-07-31T16:13:44;6.90;;;4.00;;
69463;SDS011;56665;41.106;16.688;2023-07-31T16:16:48;6.05;;;4.60;;
69463;SDS011;56665;41.106;16.688;2023-07-31T16:19:52;5.88;;;4.20;;
69463;SDS011;56665;41.106;16.688;2023-07-31T16:22:56;6.40;;;4.70;;
69463;SDS011;56665;41.106;16.688;2023-07-31T16:25:59;5.55;;;4.03;;
69463;SDS011;56665;41.106;16.688;2023-07-31T16:29:03;5.20;;;4.23;;
69463;SDS011;56665;41.106;16.688;2023-07-31T16:32:07;6.13;;;4.40;;
69463;SDS011;56665;41.106;16.688;2023-07-31T16:35:11;5.30;;;4.20;;
69463;SDS011;56665;41.106;16.688;2023-07-31T16:38:15;4.60;;;3.90;;
69463;SDS011;56665;41.106;16.688;2023-07-31T16:41:18;6.22;;;4.35;;
69463;SDS011;56665;41.106;16.688;2023-07-31T16:44:25;5.27;;;4.03;;
69463;SDS011;56665;41.106;16.688;2023-07-31T16:47:29;4.82;;;3.90;;
69463;SDS011;56665;41.106;16.688;2023-07-31T16:50:33;4.97;;;4.10;;
69463;SDS011;56665;41.106;16.688;2023-07-31T16:53:36;6.22;;;4.00;;
69463;SDS011;56665;41.106;16.688;2023-07-31T16:56:41;5.38;;;4.20;;
69463;SDS011;56665;41.106;16.688;2023-07-31T16:59:45;5.97;;;4.10;;
69463;SDS011;56665;41.106;16.688;2023-07-31T17:02:49;4.82;;;3.75;;
69463;SDS011;56665;41.106;16.688;2023-07-31T17:05:52;4.72;;;3.65;;
69463;SDS011;56665;41.106;16.688;2023-07-31T17:08:56;5.55;;;4.00;;
69463;SDS011;56665;41.106;16.688;2023-07-31T17:12:01;4.70;;;3.60;;
69463;SDS011;56665;41.106;16.688;2023-07-31T17:15:06;5.50;;;3.50;;
69463;SDS011;56665;41.106;16.688;2023-07-31T17:18:10;5.25;;;3.42;;
69463;SDS011;56665;41.106;16.688;2023-07-31T17:21:14;4.68;;;3.30;;
69463;SDS011;56665;41.106;16.688;2023-07-31T17:24:17;6.00;;;3.63;;
69463;SDS011;56665;41.106;16.688;2023-07-31T17:27:21;6.00;;;3.70;;
69463;SDS011;56665;41.106;16.688;2023-07-31T17:30:26;7.40;;;3.73;;
69463;SDS011;56665;41.106;16.688;2023-07-31T17:33:30;5.68;;;3.72;;
69463;SDS011;56665;41.106;16.688;2023-07-31T17:36:34;5.22;;;3.72;;
69463;SDS011;56665;41.106;16.688;2023-07-31T17:39:38;5.13;;;3.67;;
69463;SDS011;56665;41.106;16.688;2023-07-31T17:42:41;5.00;;;3.60;;
69463;SDS011;56665;41.106;16.688;2023-07-31T17:45:45;4.67;;;3.50;;
69463;SDS011;56665;41.106;16.688;2023-07-31T17:48:49;5.82;;;3.42;;
69463;SDS011;56665;41.106;16.688;2023-07-31T17:51:53;5.22;;;3.60;;
69463;SDS011;56665;41.106;16.688;2023-07-31T17:54:57;5.00;;;3.47;;
69463;SDS011;56665;41.106;16.688;2023-07-31T17:58:01;5.35;;;3.60;;
69463;SDS011;56665;41.106;16.688;2023-07-31T18:01:05;5.33;;;3.90;;
69463;SDS011;56665;41.106;16.688;2023-07-31T18:04:09;4.72;;;3.65;;
69463;SDS011;56665;41.106;16.688;2023-07-31T18:07:14;5.97;;;4.03;;
69463;SDS011;56665;41.106;16.688;2023-07-31T18:10:18;6.40;;;3.95;;
69463;SDS011;56665;41.106;16.688;2023-07-31T18:13:22;5.38;;;3.97;;
69463;SDS011;56665;41.106;16.688;2023-07-31T18:16:25;5.23;;;3.93;;
69463;SDS011;56665;41.106;16.688;2023-07-31T18:19:29;6.75;;;4.00;;